Terminal Aerodrome Forecast
Issued by NWS

Home | Current Version | Previous Version | Graphics & Text | Print | Product List | Glossary On
Versions: 1 2 3 4 5 6 7 8 9 10 11 12 13 14 15 16 17 18 19 20 21
202
FTUS43 KMPX 160520
TAFRNH
TAF
KRNH 160520Z 1606/1706 33008KT P6SM OVC015
     FM160900 34006KT P6SM BKN020
     FM161200 VRB04KT P6SM BKN025
     FM161600 11005KT P6SM BKN040
     FM161900 14009KT P6SM BKN060
     FM170100 14011G20KT P6SM BKN130=

USA.gov is the U.S. government's official web portal to all federal, state and local government web resources and services.